createdAt,value
2024-01-17T00:00:24.057Z,14.60
2024-01-17T00:03:12.351Z,15.80
2024-01-17T00:05:40.475Z,17.50
2024-01-17T00:08:09.648Z,15.60
2024-01-17T00:10:37.704Z,12.70
2024-01-17T00:13:05.977Z,16.40
2024-01-17T00:15:34.389Z,18.20
2024-01-17T00:18:02.444Z,17.40
2024-01-17T00:20:30.824Z,18.10
2024-01-17T00:22:58.977Z,16.70
2024-01-17T00:25:26.956Z,14.80
2024-01-17T00:27:54.899Z,15.40
2024-01-17T00:30:24.261Z,17.20
2024-01-17T00:32:52.332Z,17.80
2024-01-17T00:35:20.400Z,16.50
2024-01-17T00:37:48.344Z,17.60
2024-01-17T00:40:16.359Z,19.60
2024-01-17T00:42:44.267Z,16.40
2024-01-17T00:45:14.492Z,15.20
2024-01-17T00:47:42.744Z,15.80
2024-01-17T00:50:11.303Z,16.10
2024-01-17T00:52:39.436Z,13.60
2024-01-17T00:55:07.737Z,14.00
2024-01-17T00:57:36.179Z,13.70
2024-01-17T01:00:06.323Z,16.00
2024-01-17T01:02:34.863Z,17.70
2024-01-17T01:05:02.938Z,14.60
2024-01-17T01:07:30.911Z,19.20
2024-01-17T01:09:58.936Z,18.20
2024-01-17T01:12:26.813Z,19.80
2024-01-17T01:14:55.030Z,12.90
2024-01-17T01:17:23.222Z,15.50
2024-01-17T01:19:51.758Z,18.80
2024-01-17T01:22:19.659Z,17.60
2024-01-17T01:24:47.595Z,14.10
2024-01-17T01:27:16.119Z,14.50
2024-01-17T01:29:44.337Z,18.60
2024-01-17T01:32:12.390Z,16.30
2024-01-17T01:34:40.520Z,15.10
2024-01-17T01:37:08.435Z,15.80
2024-01-17T01:39:37.625Z,12.40
2024-01-17T01:42:05.655Z,16.30
2024-01-17T01:44:33.801Z,14.10
2024-01-17T01:47:02.219Z,14.00
2024-01-17T01:49:30.957Z,12.30
2024-01-17T01:51:59.228Z,14.60
2024-01-17T01:54:27.980Z,10.70
2024-01-17T01:56:56.106Z,12.80
2024-01-17T01:59:24.336Z,13.00
2024-01-17T02:01:52.753Z,11.40
2024-01-17T02:04:22.201Z,9.80
2024-01-17T02:06:52.035Z,13.10
2024-01-17T02:09:20.297Z,12.50
2024-01-17T02:11:48.493Z,13.50
2024-01-17T02:14:18.610Z,13.00
2024-01-17T02:16:47.646Z,16.70
2024-01-17T02:19:17.766Z,11.60
2024-01-17T02:21:45.759Z,16.20
2024-01-17T02:24:29.998Z,16.60
2024-01-17T02:27:01.071Z,14.60
2024-01-17T02:29:30.492Z,16.80
2024-01-17T02:31:58.982Z,15.60
2024-01-17T02:34:27.553Z,14.90
2024-01-17T02:36:55.697Z,13.60
2024-01-17T02:39:26.150Z,13.50
2024-01-17T02:41:54.376Z,14.00
2024-01-17T02:44:22.429Z,15.30
2024-01-17T02:46:50.444Z,15.80
2024-01-17T02:49:21.199Z,17.00
2024-01-17T02:54:17.226Z,18.10
2024-01-17T02:56:45.339Z,22.00
2024-01-17T02:59:15.620Z,17.90
2024-01-17T03:01:44.205Z,18.20
2024-01-17T03:04:12.207Z,14.30
2024-01-17T03:06:40.254Z,16.60
2024-01-17T03:09:08.497Z,13.30
2024-01-17T03:11:36.446Z,12.00
2024-01-17T03:14:04.546Z,12.50
2024-01-17T03:16:32.832Z,11.90
2024-01-17T03:19:01.107Z,16.00
2024-01-17T03:21:29.995Z,23.00
2024-01-17T03:23:59.869Z,17.40
2024-01-17T03:26:28.408Z,16.00
2024-01-17T03:28:56.384Z,15.10
2024-01-17T03:31:24.424Z,16.40
2024-01-17T03:33:52.546Z,18.20
2024-01-17T03:36:20.698Z,15.60
2024-01-17T03:38:48.982Z,17.00
2024-01-17T03:41:16.870Z,19.50
2024-01-17T03:43:45.342Z,14.10
2024-01-17T03:46:13.207Z,15.20
2024-01-17T03:48:41.379Z,19.40
2024-01-17T03:51:09.544Z,22.50
2024-01-17T03:53:38.151Z,18.60
2024-01-17T03:56:06.268Z,17.40
2024-01-17T03:58:35.086Z,16.20
2024-01-17T04:01:03.656Z,13.70
2024-01-17T04:03:31.806Z,16.60
2024-01-17T04:05:59.731Z,18.80
2024-01-17T04:08:27.849Z,16.10
2024-01-17T04:10:56.235Z,17.00
2024-01-17T04:13:24.370Z,16.10
2024-01-17T04:15:52.297Z,16.80
2024-01-17T04:18:20.446Z,19.30
2024-01-17T04:20:48.507Z,24.70
2024-01-17T04:23:16.868Z,25.40
2024-01-17T04:25:44.869Z,27.20
2024-01-17T04:28:13.374Z,23.10
2024-01-17T04:30:41.715Z,22.60
2024-01-17T04:33:10.907Z,20.60
2024-01-17T04:35:39.097Z,16.10
2024-01-17T04:38:07.033Z,22.40
2024-01-17T04:40:34.952Z,14.10
2024-01-17T04:43:03.154Z,18.00
2024-01-17T04:45:31.819Z,18.80
2024-01-17T04:48:00.015Z,18.20
2024-01-17T04:50:29.667Z,16.80
2024-01-17T04:52:57.618Z,17.40
2024-01-17T04:55:25.620Z,17.80
2024-01-17T04:57:53.564Z,18.00
2024-01-17T05:00:21.952Z,18.50
2024-01-17T05:02:49.889Z,18.70
2024-01-17T05:05:18.089Z,16.30
2024-01-17T05:07:46.108Z,16.30
2024-01-17T05:10:14.858Z,20.80
2024-01-17T05:12:42.849Z,17.90
2024-01-17T05:15:10.979Z,19.30
2024-01-17T05:17:39.111Z,22.80
2024-01-17T05:20:08.557Z,23.60
2024-01-17T05:22:41.043Z,21.50
2024-01-17T05:25:13.037Z,20.20
2024-01-17T05:27:41.506Z,16.10
2024-01-17T05:30:16.029Z,17.00
2024-01-17T05:32:45.504Z,17.50
2024-01-17T05:35:17.669Z,19.20
2024-01-17T05:37:46.967Z,20.10
2024-01-17T05:40:15.374Z,16.40
2024-01-17T05:42:45.285Z,18.20
2024-01-17T05:45:13.941Z,18.30
2024-01-17T05:47:42.337Z,20.50
2024-01-17T05:50:10.735Z,19.50
2024-01-17T05:52:43.158Z,22.60
2024-01-17T05:55:38.345Z,17.40
2024-01-17T05:58:31.900Z,15.60
2024-01-17T06:00:59.961Z,20.10
2024-01-17T06:03:28.391Z,16.30
2024-01-17T06:05:56.637Z,18.40
2024-01-17T06:08:24.729Z,12.70
2024-01-17T06:10:55.875Z,14.80
2024-01-17T06:13:23.757Z,18.50
2024-01-17T06:15:51.629Z,16.60
2024-01-17T06:18:20.084Z,17.40
2024-01-17T06:20:48.793Z,16.90
2024-01-17T06:23:16.653Z,17.10
2024-01-17T06:25:44.675Z,14.70
2024-01-17T06:28:12.693Z,16.70
2024-01-17T06:30:40.724Z,23.60
2024-01-17T06:33:09.036Z,17.30
2024-01-17T06:35:37.198Z,19.20
2024-01-17T06:38:05.158Z,15.90
2024-01-17T06:40:33.742Z,16.40
2024-01-17T06:43:01.725Z,18.80
2024-01-17T06:45:29.688Z,17.30
2024-01-17T06:48:00.254Z,15.10
2024-01-17T06:50:28.415Z,14.60
2024-01-17T06:52:56.423Z,19.40
2024-01-17T06:55:24.687Z,12.80
2024-01-17T06:57:52.704Z,20.90
2024-01-17T07:00:21.374Z,26.60
2024-01-17T07:02:49.496Z,15.80
2024-01-17T07:05:18.365Z,15.60
2024-01-17T07:07:46.414Z,18.90
2024-01-17T07:10:14.976Z,16.80
2024-01-17T07:12:42.873Z,20.20
2024-01-17T07:15:11.169Z,19.70
2024-01-17T07:17:39.531Z,21.00
2024-01-17T07:20:08.573Z,19.90
2024-01-17T07:22:42.489Z,16.50
2024-01-17T07:25:11.641Z,16.30
2024-01-17T07:27:41.056Z,19.60
2024-01-17T07:30:09.341Z,15.90
2024-01-17T07:32:37.512Z,15.20
2024-01-17T07:35:06.309Z,13.60
2024-01-17T07:37:36.583Z,18.00
2024-01-17T07:40:06.068Z,14.70
2024-01-17T07:42:34.141Z,14.10
2024-01-17T07:45:03.351Z,16.50
2024-01-17T07:47:31.533Z,11.30
2024-01-17T07:50:01.234Z,12.40
2024-01-17T07:52:29.321Z,15.30
2024-01-17T07:54:57.521Z,13.70
2024-01-17T07:57:25.470Z,14.70
2024-01-17T07:59:53.405Z,11.60
2024-01-17T08:02:21.402Z,10.50
2024-01-17T08:04:53.417Z,13.80
2024-01-17T08:07:26.091Z,12.70
2024-01-17T08:09:56.509Z,10.50
2024-01-17T08:12:26.425Z,14.70
2024-01-17T08:14:54.490Z,15.10
2024-01-17T08:17:22.547Z,17.30
2024-01-17T08:19:50.695Z,14.00
2024-01-17T08:22:18.754Z,15.50
2024-01-17T08:24:46.632Z,18.20
2024-01-17T08:27:14.622Z,17.90
2024-01-17T08:29:46.413Z,19.70
2024-01-17T08:32:14.663Z,19.30
2024-01-17T08:34:42.746Z,16.80
2024-01-17T08:37:10.676Z,20.40
2024-01-17T08:39:38.860Z,24.90
2024-01-17T08:42:06.994Z,20.60
2024-01-17T08:44:36.077Z,27.90
2024-01-17T08:47:04.605Z,22.30
2024-01-17T08:49:32.658Z,24.50
2024-01-17T08:52:00.649Z,24.60
2024-01-17T08:54:28.662Z,18.00
2024-01-17T08:56:56.677Z,19.30
2024-01-17T08:59:24.619Z,17.90
2024-01-17T09:01:53.850Z,16.40
2024-01-17T09:04:21.964Z,16.90
2024-01-17T09:06:50.227Z,20.10
2024-01-17T09:09:18.482Z,19.40
2024-01-17T09:11:46.513Z,24.70
2024-01-17T09:14:14.972Z,19.60
2024-01-17T09:16:42.987Z,21.70
2024-01-17T09:19:11.851Z,20.50
2024-01-17T09:21:41.060Z,15.80
2024-01-17T09:24:09.157Z,21.00
2024-01-17T09:26:37.594Z,27.70
2024-01-17T09:29:05.790Z,24.50
2024-01-17T09:31:33.789Z,20.60
2024-01-17T09:34:02.778Z,20.50
2024-01-17T09:36:31.063Z,23.20
2024-01-17T09:38:59.085Z,20.70
2024-01-17T09:41:27.134Z,17.20
2024-01-17T09:43:55.461Z,17.50
2024-01-17T09:46:24.133Z,16.90
2024-01-17T09:48:52.217Z,29.70
2024-01-17T09:51:24.729Z,22.50
2024-01-17T09:53:54.663Z,26.60
2024-01-17T09:56:25.269Z,30.80
2024-01-17T09:58:55.834Z,29.00
2024-01-17T10:01:27.667Z,29.40
2024-01-17T10:03:59.149Z,32.50
2024-01-17T10:06:29.196Z,33.10
2024-01-17T10:08:58.882Z,23.10
2024-01-17T10:11:26.976Z,23.80
2024-01-17T10:13:54.859Z,31.40
2024-01-17T10:16:24.433Z,26.20
2024-01-17T10:18:52.430Z,41.60
2024-01-17T10:21:21.254Z,60.20
2024-01-17T10:23:50.532Z,57.50
2024-01-17T10:26:18.935Z,48.70
2024-01-17T10:28:47.387Z,41.60
2024-01-17T10:31:15.339Z,37.10
2024-01-17T10:33:44.414Z,43.30
2024-01-17T10:36:13.979Z,43.80
2024-01-17T10:38:42.414Z,43.90
2024-01-17T10:41:11.297Z,51.10
2024-01-17T10:43:58.166Z,77.20
2024-01-17T10:46:27.280Z,75.30
2024-01-17T10:48:57.539Z,77.20
2024-01-17T10:51:26.178Z,66.30
2024-01-17T10:53:57.147Z,66.20
2024-01-17T10:58:57.030Z,57.50
2024-01-17T11:01:39.615Z,49.20
2024-01-17T11:04:36.026Z,81.70
2024-01-17T11:07:06.072Z,57.50
2024-01-17T11:09:34.943Z,51.40
2024-01-17T11:12:05.685Z,30.30
2024-01-17T11:14:34.787Z,33.90
2024-01-17T11:17:05.025Z,25.10
2024-01-17T11:19:34.830Z,23.40
2024-01-17T11:22:03.644Z,31.40
2024-01-17T11:25:03.527Z,29.80
2024-01-17T11:27:43.725Z,28.70
2024-01-17T11:30:43.878Z,37.30
2024-01-17T11:33:15.221Z,27.10
2024-01-17T11:35:50.952Z,16.30
2024-01-17T11:38:25.257Z,24.80
2024-01-17T11:40:54.732Z,33.00
2024-01-17T11:43:23.063Z,27.70
2024-01-17T11:45:51.887Z,30.00
2024-01-17T11:48:20.432Z,21.30
2024-01-17T11:51:06.354Z,20.50
2024-01-17T11:53:36.859Z,19.10
2024-01-17T11:56:08.205Z,22.80
2024-01-17T11:58:44.815Z,25.10
2024-01-17T12:01:18.252Z,22.50
2024-01-17T12:03:46.459Z,20.80
2024-01-17T12:06:15.463Z,25.30
2024-01-17T12:08:45.649Z,22.80
2024-01-17T12:11:14.702Z,36.50
2024-01-17T12:13:43.382Z,25.20
2024-01-17T12:16:12.525Z,19.40
2024-01-17T12:18:59.776Z,15.70
2024-01-17T12:21:28.276Z,14.80
2024-01-17T12:23:57.282Z,21.00
2024-01-17T12:26:30.455Z,23.10
2024-01-17T12:29:07.701Z,20.50
2024-01-17T12:31:37.185Z,17.40
2024-01-17T12:34:09.209Z,16.60
2024-01-17T12:36:37.846Z,22.80
2024-01-17T12:39:14.806Z,23.70
2024-01-17T12:41:43.051Z,13.60
2024-01-17T12:44:11.647Z,18.60
2024-01-17T12:46:39.800Z,12.50
2024-01-17T12:49:15.272Z,12.30
2024-01-17T12:51:43.862Z,11.90
2024-01-17T12:54:18.472Z,11.50
2024-01-17T12:56:49.065Z,12.10
2024-01-17T12:59:17.850Z,16.80
2024-01-17T13:01:46.205Z,8.90
2024-01-17T13:04:14.458Z,9.50
2024-01-17T13:06:51.116Z,11.50
2024-01-17T13:09:22.971Z,12.30
2024-01-17T13:11:55.235Z,16.60
2024-01-17T13:14:25.812Z,10.00
2024-01-17T13:16:57.705Z,14.40
2024-01-17T13:19:25.975Z,9.40
2024-01-17T13:21:54.070Z,9.80
2024-01-17T13:24:24.375Z,10.70
2024-01-17T13:26:52.682Z,12.80
2024-01-17T13:29:20.931Z,13.80
2024-01-17T13:31:49.072Z,12.80
2024-01-17T13:34:17.389Z,29.40
2024-01-17T13:36:45.618Z,26.30
2024-01-17T13:39:14.449Z,18.30
2024-01-17T13:41:44.296Z,18.60
2024-01-17T13:44:13.246Z,13.80
2024-01-17T13:46:41.797Z,12.10
2024-01-17T13:49:10.214Z,14.20
2024-01-17T13:51:47.542Z,12.40
2024-01-17T13:54:20.755Z,17.40
2024-01-17T13:56:49.023Z,22.40
2024-01-17T13:59:17.302Z,19.90
2024-01-17T14:01:45.387Z,21.80
2024-01-17T14:04:13.487Z,18.50
2024-01-17T14:06:41.849Z,14.30
2024-01-17T14:09:10.785Z,13.40
2024-01-17T14:11:41.635Z,12.10
2024-01-17T14:16:42.457Z,9.90
2024-01-17T14:19:11.490Z,9.40
2024-01-17T14:21:39.908Z,14.00
2024-01-17T14:24:08.455Z,9.60
2024-01-17T14:26:39.867Z,10.50
2024-01-17T14:29:09.691Z,15.00
2024-01-17T14:31:37.869Z,15.80
2024-01-17T14:34:05.970Z,15.80
2024-01-17T14:36:35.597Z,17.50
2024-01-17T14:39:15.579Z,13.90
2024-01-17T14:41:44.158Z,16.60
2024-01-17T14:44:12.080Z,20.10
2024-01-17T14:46:40.187Z,16.40
2024-01-17T14:49:08.314Z,12.70
2024-01-17T14:51:36.330Z,12.80
2024-01-17T14:54:04.415Z,12.60
2024-01-17T14:56:35.598Z,8.40
2024-01-17T14:59:06.637Z,8.90
2024-01-17T15:01:39.131Z,9.10
2024-01-17T15:04:07.669Z,11.10
2024-01-17T15:06:37.343Z,12.90
2024-01-17T15:09:27.113Z,9.40
2024-01-17T15:11:55.124Z,9.40
2024-01-17T15:14:23.224Z,11.00
2024-01-17T15:16:51.263Z,11.80
2024-01-17T15:19:19.679Z,13.80
2024-01-17T15:21:48.544Z,18.90
2024-01-17T15:24:16.631Z,14.80
2024-01-17T15:26:46.262Z,10.90
2024-01-17T15:29:15.783Z,16.00
2024-01-17T15:31:43.708Z,20.50
2024-01-17T15:34:11.727Z,18.70
2024-01-17T15:36:40.112Z,25.00
2024-01-17T15:39:08.413Z,13.70
2024-01-17T15:41:36.942Z,7.90
2024-01-17T15:44:05.092Z,7.90
2024-01-17T15:46:33.188Z,9.70
2024-01-17T15:49:01.752Z,8.20
2024-01-17T15:51:30.012Z,9.70
2024-01-17T15:53:58.106Z,9.60
2024-01-17T15:56:26.196Z,8.70
2024-01-17T15:58:55.258Z,7.80
2024-01-17T16:01:23.258Z,9.50
2024-01-17T16:03:51.378Z,9.90
2024-01-17T16:06:19.557Z,7.50
2024-01-17T16:08:47.650Z,7.60
2024-01-17T16:11:15.743Z,8.60
2024-01-17T16:13:43.922Z,9.70
2024-01-17T16:16:15.723Z,12.90
2024-01-17T16:18:45.414Z,13.80
2024-01-17T16:21:14.720Z,11.20
2024-01-17T16:23:45.376Z,9.90
2024-01-17T16:26:14.053Z,8.60
2024-01-17T16:28:42.052Z,8.40
2024-01-17T16:31:11.315Z,11.40
2024-01-17T16:33:40.101Z,10.30
2024-01-17T16:36:08.557Z,11.10
2024-01-17T16:38:37.032Z,9.30
2024-01-17T16:41:05.883Z,11.90
2024-01-17T16:43:34.729Z,9.50
2024-01-17T16:46:03.054Z,8.70
2024-01-17T16:48:34.252Z,8.30
2024-01-17T16:51:04.276Z,9.50
2024-01-17T16:53:33.185Z,10.30
2024-01-17T16:56:01.438Z,9.50
2024-01-17T16:58:29.743Z,15.20
2024-01-17T17:00:57.957Z,16.70
2024-01-17T17:03:26.273Z,13.40
2024-01-17T17:05:56.250Z,9.40
2024-01-17T17:08:24.437Z,9.00
2024-01-17T17:10:52.467Z,8.80
2024-01-17T17:13:20.609Z,9.40
2024-01-17T17:15:48.609Z,10.00
2024-01-17T17:18:17.428Z,11.00
2024-01-17T17:20:48.952Z,14.50
2024-01-17T17:23:17.665Z,18.00
2024-01-17T17:25:45.730Z,19.20
2024-01-17T17:28:16.998Z,15.70
2024-01-17T17:30:46.020Z,9.90
2024-01-17T17:33:14.319Z,18.40
2024-01-17T17:35:42.716Z,18.70
2024-01-17T17:38:11.053Z,18.00
2024-01-17T17:40:43.227Z,13.40
2024-01-17T17:43:13.722Z,13.50
2024-01-17T17:45:41.983Z,8.80
2024-01-17T17:48:17.977Z,9.10
2024-01-17T17:50:49.064Z,12.60
2024-01-17T17:53:17.858Z,13.50
2024-01-17T17:55:46.657Z,13.60
2024-01-17T17:58:15.136Z,10.00
2024-01-17T18:00:46.313Z,11.00
2024-01-17T18:03:14.530Z,10.60
2024-01-17T18:05:43.434Z,9.50
2024-01-17T18:08:11.947Z,8.20
2024-01-17T18:10:40.070Z,9.60
2024-01-17T18:13:07.990Z,10.00
2024-01-17T18:15:37.692Z,10.80
2024-01-17T18:18:07.617Z,15.60
2024-01-17T18:20:35.883Z,15.20
2024-01-17T18:23:03.953Z,13.80
2024-01-17T18:25:34.888Z,11.20
2024-01-17T18:28:05.155Z,14.10
2024-01-17T18:30:33.189Z,16.30
2024-01-17T18:33:01.331Z,12.20
2024-01-17T18:35:29.998Z,9.90
2024-01-17T18:37:58.009Z,9.90
2024-01-17T18:40:25.953Z,12.20
2024-01-17T18:42:54.308Z,12.00
2024-01-17T18:45:22.567Z,8.80
2024-01-17T18:47:50.762Z,10.70
2024-01-17T18:50:18.869Z,10.90
2024-01-17T18:52:46.959Z,8.90
2024-01-17T18:55:15.184Z,6.20
2024-01-17T18:57:43.227Z,7.00
2024-01-17T19:00:12.885Z,6.80
2024-01-17T19:02:44.564Z,5.90
2024-01-17T19:05:13.150Z,8.50
2024-01-17T19:07:41.179Z,12.80
2024-01-17T19:10:09.176Z,10.00
2024-01-17T19:12:37.361Z,7.60
2024-01-17T19:15:08.868Z,7.90
2024-01-17T19:17:36.876Z,13.40
2024-01-17T19:20:07.303Z,10.60
2024-01-17T19:22:37.095Z,7.80
2024-01-17T19:25:06.151Z,7.80
2024-01-17T19:27:37.546Z,7.80
2024-01-17T19:30:07.358Z,10.40
2024-01-17T19:32:35.524Z,11.30
2024-01-17T19:35:07.057Z,6.00
2024-01-17T19:37:52.842Z,6.80
2024-01-17T19:40:20.974Z,5.60
2024-01-17T19:42:53.339Z,8.40
2024-01-17T19:45:21.619Z,8.00
2024-01-17T19:47:50.476Z,8.60
2024-01-17T19:50:18.632Z,9.10
2024-01-17T19:52:50.236Z,9.10
2024-01-17T19:55:20.135Z,10.10
2024-01-17T19:57:48.218Z,13.50
2024-01-17T20:00:34.498Z,9.30
2024-01-17T20:03:03.246Z,9.30
2024-01-17T20:05:31.521Z,9.30
2024-01-17T20:07:59.854Z,11.80
2024-01-17T20:10:28.022Z,11.40
2024-01-17T20:13:00.305Z,8.50
2024-01-17T20:15:28.955Z,9.50
2024-01-17T20:17:57.246Z,11.10
2024-01-17T20:20:25.673Z,13.30
2024-01-17T20:22:53.867Z,8.60
2024-01-17T20:25:22.017Z,11.10
2024-01-17T20:27:50.067Z,13.20
2024-01-17T20:30:21.748Z,11.90
2024-01-17T20:32:50.213Z,9.60
2024-01-17T20:35:19.666Z,11.10
2024-01-17T20:37:47.826Z,10.80
2024-01-17T20:40:16.396Z,9.90
2024-01-17T20:42:44.416Z,9.50
2024-01-17T20:45:12.897Z,7.70
2024-01-17T20:47:41.516Z,8.50
2024-01-17T20:50:10.462Z,7.20
2024-01-17T20:52:38.647Z,10.00
2024-01-17T20:55:07.219Z,8.20
2024-01-17T20:57:35.702Z,8.00
2024-01-17T21:00:06.134Z,12.70
2024-01-17T21:02:34.230Z,7.30
2024-01-17T21:05:03.737Z,8.90
2024-01-17T21:07:31.936Z,9.20
2024-01-17T21:10:00.389Z,9.50
2024-01-17T21:12:29.402Z,11.50
2024-01-17T21:14:57.696Z,8.50
2024-01-17T21:17:27.256Z,7.10
2024-01-17T21:19:56.647Z,7.50
2024-01-17T21:22:25.574Z,9.60
2024-01-17T21:24:53.594Z,8.10
2024-01-17T21:27:21.789Z,7.90
2024-01-17T21:29:49.976Z,8.60
2024-01-17T21:32:19.042Z,10.20
2024-01-17T21:34:47.145Z,7.10
2024-01-17T21:37:15.268Z,7.90
2024-01-17T21:39:43.470Z,7.70
2024-01-17T21:42:11.565Z,7.20
2024-01-17T21:44:39.649Z,9.80
2024-01-17T21:47:07.687Z,9.30
2024-01-17T21:49:35.579Z,6.40
2024-01-17T21:52:04.200Z,6.10
2024-01-17T21:54:32.397Z,7.30
2024-01-17T21:57:01.407Z,8.80
2024-01-17T21:59:29.527Z,8.30
2024-01-17T22:01:57.599Z,8.60
2024-01-17T22:04:30.166Z,7.40
2024-01-17T22:06:58.502Z,6.70
2024-01-17T22:09:29.505Z,6.80
2024-01-17T22:11:57.530Z,8.10
2024-01-17T22:14:26.040Z,7.70
2024-01-17T22:16:54.067Z,9.20
2024-01-17T22:19:22.175Z,7.90
2024-01-17T22:21:50.291Z,7.00
2024-01-17T22:24:18.819Z,6.70
2024-01-17T22:26:46.817Z,5.30
2024-01-17T22:29:15.126Z,6.60
2024-01-17T22:31:43.035Z,6.80
2024-01-17T22:34:11.392Z,8.20
2024-01-17T22:36:39.746Z,6.80
2024-01-17T22:39:11.138Z,7.60
2024-01-17T22:41:43.428Z,5.70
2024-01-17T22:44:13.416Z,5.10
2024-01-17T22:46:41.412Z,6.60
2024-01-17T22:49:09.508Z,5.80
2024-01-17T22:51:37.697Z,6.90
2024-01-17T22:54:05.732Z,8.90
2024-01-17T22:56:38.602Z,8.40
2024-01-17T22:59:06.979Z,8.90
2024-01-17T23:01:35.176Z,9.40
2024-01-17T23:04:03.640Z,5.80
2024-01-17T23:06:32.044Z,6.70
2024-01-17T23:09:00.499Z,8.30
2024-01-17T23:11:28.490Z,10.10
2024-01-17T23:13:56.809Z,6.60
2024-01-17T23:16:24.758Z,6.50
2024-01-17T23:18:52.968Z,7.80
2024-01-17T23:21:23.344Z,4.20
2024-01-17T23:23:51.572Z,6.30
2024-01-17T23:26:19.629Z,6.00
2024-01-17T23:28:47.786Z,5.30
2024-01-17T23:31:16.604Z,5.30
2024-01-17T23:33:45.137Z,5.60
2024-01-17T23:36:13.497Z,5.60
2024-01-17T23:38:41.540Z,5.60
2024-01-17T23:41:09.539Z,8.20
2024-01-17T23:43:37.550Z,6.50
2024-01-17T23:46:07.190Z,7.20
2024-01-17T23:48:36.098Z,5.80
2024-01-17T23:51:04.854Z,7.70
2024-01-17T23:53:32.826Z,6.40
2024-01-17T23:56:01.811Z,6.80
2024-01-17T23:58:30.404Z,5.60
